sensor_id;sensor_type;location;lat;lon;timestamp;P1;durP1;ratioP1;P2;durP2;ratioP2
38911;SDS011;28444;48.056;14.408;2023-04-25T00:01:15;6.95;;;1.90;;
38911;SDS011;28444;48.056;14.408;2023-04-25T00:04:02;2.85;;;1.92;;
38911;SDS011;28444;48.056;14.408;2023-04-25T00:06:50;3.53;;;2.08;;
38911;SDS011;28444;48.056;14.408;2023-04-25T00:09:37;3.42;;;2.10;;
38911;SDS011;28444;48.056;14.408;2023-04-25T00:12:24;5.88;;;1.98;;
38911;SDS011;28444;48.056;14.408;2023-04-25T00:15:12;2.45;;;2.17;;
38911;SDS011;28444;48.056;14.408;2023-04-25T00:17:59;2.13;;;1.90;;
38911;SDS011;28444;48.056;14.408;2023-04-25T00:20:46;3.53;;;1.95;;
38911;SDS011;28444;48.056;14.408;2023-04-25T00:23:33;6.53;;;2.13;;
38911;SDS011;28444;48.056;14.408;2023-04-25T00:26:22;4.28;;;2.47;;
38911;SDS011;28444;48.056;14.408;2023-04-25T00:29:09;3.90;;;2.55;;
38911;SDS011;28444;48.056;14.408;2023-04-25T00:31:56;2.92;;;1.77;;
38911;SDS011;28444;48.056;14.408;2023-04-25T00:34:43;1.80;;;1.70;;
38911;SDS011;28444;48.056;14.408;2023-04-25T00:37:30;3.10;;;2.38;;
38911;SDS011;28444;48.056;14.408;2023-04-25T00:40:17;2.70;;;2.13;;
38911;SDS011;28444;48.056;14.408;2023-04-25T00:43:04;4.00;;;1.92;;
38911;SDS011;28444;48.056;14.408;2023-04-25T00:45:52;2.15;;;1.80;;
38911;SDS011;28444;48.056;14.408;2023-04-25T00:48:39;2.53;;;2.33;;
38911;SDS011;28444;48.056;14.408;2023-04-25T00:51:26;4.57;;;2.30;;
38911;SDS011;28444;48.056;14.408;2023-04-25T00:54:13;4.43;;;2.20;;
38911;SDS011;28444;48.056;14.408;2023-04-25T00:57:00;2.88;;;2.00;;
38911;SDS011;28444;48.056;14.408;2023-04-25T00:59:47;12.23;;;2.47;;
38911;SDS011;28444;48.056;14.408;2023-04-25T01:02:37;5.22;;;2.22;;
38911;SDS011;28444;48.056;14.408;2023-04-25T01:05:25;2.10;;;1.90;;
38911;SDS011;28444;48.056;14.408;2023-04-25T01:08:12;4.20;;;2.38;;
38911;SDS011;28444;48.056;14.408;2023-04-25T01:11:00;2.78;;;2.20;;
38911;SDS011;28444;48.056;14.408;2023-04-25T01:13:47;3.45;;;2.40;;
38911;SDS011;28444;48.056;14.408;2023-04-25T01:16:34;4.32;;;2.25;;
38911;SDS011;28444;48.056;14.408;2023-04-25T01:19:22;2.50;;;2.30;;
38911;SDS011;28444;48.056;14.408;2023-04-25T01:22:10;4.43;;;2.45;;
38911;SDS011;28444;48.056;14.408;2023-04-25T01:24:57;5.53;;;2.20;;
38911;SDS011;28444;48.056;14.408;2023-04-25T01:27:45;3.17;;;2.30;;
38911;SDS011;28444;48.056;14.408;2023-04-25T01:30:33;3.63;;;2.30;;
38911;SDS011;28444;48.056;14.408;2023-04-25T01:33:21;2.92;;;2.22;;
38911;SDS011;28444;48.056;14.408;2023-04-25T01:36:08;7.57;;;1.85;;
38911;SDS011;28444;48.056;14.408;2023-04-25T01:38:56;4.13;;;2.05;;
38911;SDS011;28444;48.056;14.408;2023-04-25T01:41:43;3.28;;;2.20;;
38911;SDS011;28444;48.056;14.408;2023-04-25T01:44:30;2.75;;;1.85;;
38911;SDS011;28444;48.056;14.408;2023-04-25T01:47:17;1677.90;;;793.08;;
38911;SDS011;28444;48.056;14.408;2023-04-25T01:50:05;1074.03;;;695.25;;
38911;SDS011;28444;48.056;14.408;2023-04-25T01:52:53;320.75;;;230.77;;
38911;SDS011;28444;48.056;14.408;2023-04-25T01:55:40;59.60;;;42.03;;
38911;SDS011;28444;48.056;14.408;2023-04-25T01:58:28;30.52;;;23.08;;
38911;SDS011;28444;48.056;14.408;2023-04-25T02:01:14;47.53;;;42.38;;
38911;SDS011;28444;48.056;14.408;2023-04-25T02:04:01;81.03;;;70.40;;
38911;SDS011;28444;48.056;14.408;2023-04-25T02:06:49;38.40;;;32.53;;
38911;SDS011;28444;48.056;14.408;2023-04-25T02:09:36;24.25;;;19.88;;
38911;SDS011;28444;48.056;14.408;2023-04-25T02:12:23;31.08;;;26.80;;
38911;SDS011;28444;48.056;14.408;2023-04-25T02:15:10;15.60;;;14.07;;
38911;SDS011;28444;48.056;14.408;2023-04-25T02:17:57;12.40;;;11.02;;
38911;SDS011;28444;48.056;14.408;2023-04-25T02:20:46;14.40;;;12.98;;
38911;SDS011;28444;48.056;14.408;2023-04-25T02:23:33;10.70;;;7.95;;
38911;SDS011;28444;48.056;14.408;2023-04-25T02:26:21;6.07;;;5.35;;
38911;SDS011;28444;48.056;14.408;2023-04-25T02:29:08;4.70;;;3.83;;
38911;SDS011;28444;48.056;14.408;2023-04-25T02:31:55;19.80;;;3.67;;
38911;SDS011;28444;48.056;14.408;2023-04-25T02:34:42;4.63;;;3.22;;
38911;SDS011;28444;48.056;14.408;2023-04-25T02:37:30;6.35;;;3.28;;
38911;SDS011;28444;48.056;14.408;2023-04-25T02:40:17;3.88;;;3.25;;
38911;SDS011;28444;48.056;14.408;2023-04-25T02:43:04;11.70;;;4.07;;
38911;SDS011;28444;48.056;14.408;2023-04-25T02:45:51;6.82;;;2.78;;
38911;SDS011;28444;48.056;14.408;2023-04-25T02:48:38;5.57;;;3.08;;
38911;SDS011;28444;48.056;14.408;2023-04-25T02:51:25;6.50;;;2.83;;
38911;SDS011;28444;48.056;14.408;2023-04-25T02:54:12;4.60;;;3.42;;
38911;SDS011;28444;48.056;14.408;2023-04-25T02:56:59;5.57;;;3.25;;
38911;SDS011;28444;48.056;14.408;2023-04-25T02:59:47;8.20;;;3.65;;
38911;SDS011;28444;48.056;14.408;2023-04-25T03:02:34;4.75;;;2.63;;
38911;SDS011;28444;48.056;14.408;2023-04-25T03:05:21;4.10;;;2.20;;
38911;SDS011;28444;48.056;14.408;2023-04-25T03:08:08;4.90;;;2.53;;
38911;SDS011;28444;48.056;14.408;2023-04-25T03:10:55;6.57;;;2.70;;
38911;SDS011;28444;48.056;14.408;2023-04-25T03:13:43;5.72;;;2.92;;
38911;SDS011;28444;48.056;14.408;2023-04-25T03:16:30;8.30;;;2.80;;
38911;SDS011;28444;48.056;14.408;2023-04-25T03:19:18;6.72;;;2.70;;
38911;SDS011;28444;48.056;14.408;2023-04-25T03:22:05;5.72;;;2.53;;
38911;SDS011;28444;48.056;14.408;2023-04-25T03:24:52;4.18;;;2.55;;
38911;SDS011;28444;48.056;14.408;2023-04-25T03:27:39;4.68;;;2.67;;
38911;SDS011;28444;48.056;14.408;2023-04-25T03:30:26;3.33;;;2.40;;
38911;SDS011;28444;48.056;14.408;2023-04-25T03:33:12;2.95;;;2.25;;
38911;SDS011;28444;48.056;14.408;2023-04-25T03:35:59;4.13;;;2.50;;
38911;SDS011;28444;48.056;14.408;2023-04-25T03:38:46;5.32;;;2.42;;
38911;SDS011;28444;48.056;14.408;2023-04-25T03:41:34;5.32;;;2.65;;
38911;SDS011;28444;48.056;14.408;2023-04-25T03:44:21;6.40;;;3.05;;
38911;SDS011;28444;48.056;14.408;2023-04-25T03:47:08;7.20;;;2.70;;
38911;SDS011;28444;48.056;14.408;2023-04-25T03:49:55;2.38;;;2.15;;
38911;SDS011;28444;48.056;14.408;2023-04-25T03:52:43;3.20;;;2.78;;
38911;SDS011;28444;48.056;14.408;2023-04-25T03:55:30;3.90;;;2.72;;
38911;SDS011;28444;48.056;14.408;2023-04-25T03:58:17;4.28;;;3.42;;
38911;SDS011;28444;48.056;14.408;2023-04-25T04:01:04;3.30;;;2.97;;
38911;SDS011;28444;48.056;14.408;2023-04-25T04:03:54;11.65;;;2.67;;
38911;SDS011;28444;48.056;14.408;2023-04-25T04:06:42;3.38;;;2.45;;
38911;SDS011;28444;48.056;14.408;2023-04-25T04:09:29;5.05;;;2.55;;
38911;SDS011;28444;48.056;14.408;2023-04-25T04:12:16;6.88;;;2.40;;
38911;SDS011;28444;48.056;14.408;2023-04-25T04:15:03;5.88;;;2.88;;
38911;SDS011;28444;48.056;14.408;2023-04-25T04:17:52;12.27;;;3.92;;
38911;SDS011;28444;48.056;14.408;2023-04-25T04:20:39;6.05;;;2.75;;
38911;SDS011;28444;48.056;14.408;2023-04-25T04:23:26;5.78;;;3.33;;
38911;SDS011;28444;48.056;14.408;2023-04-25T04:26:14;8.27;;;3.42;;
38911;SDS011;28444;48.056;14.408;2023-04-25T04:29:02;4.93;;;3.22;;
38911;SDS011;28444;48.056;14.408;2023-04-25T04:31:49;6.78;;;3.47;;
38911;SDS011;28444;48.056;14.408;2023-04-25T04:34:37;10.90;;;4.10;;
38911;SDS011;28444;48.056;14.408;2023-04-25T04:37:25;6.80;;;3.38;;
38911;SDS011;28444;48.056;14.408;2023-04-25T04:40:12;10.18;;;4.50;;
38911;SDS011;28444;48.056;14.408;2023-04-25T04:43:02;11.38;;;3.85;;
38911;SDS011;28444;48.056;14.408;2023-04-25T04:45:49;9.18;;;4.07;;
38911;SDS011;28444;48.056;14.408;2023-04-25T04:48:36;8.63;;;3.83;;
38911;SDS011;28444;48.056;14.408;2023-04-25T04:51:23;18.83;;;4.93;;
38911;SDS011;28444;48.056;14.408;2023-04-25T04:54:10;5.97;;;4.85;;
38911;SDS011;28444;48.056;14.408;2023-04-25T04:56:57;4.25;;;3.40;;
38911;SDS011;28444;48.056;14.408;2023-04-25T04:59:45;5.95;;;2.85;;
38911;SDS011;28444;48.056;14.408;2023-04-25T05:02:32;32.60;;;6.65;;
38911;SDS011;28444;48.056;14.408;2023-04-25T05:05:19;9.23;;;3.60;;
38911;SDS011;28444;48.056;14.408;2023-04-25T05:08:06;7.75;;;2.40;;
38911;SDS011;28444;48.056;14.408;2023-04-25T05:10:53;4.95;;;2.28;;
38911;SDS011;28444;48.056;14.408;2023-04-25T05:13:40;2.50;;;2.30;;
38911;SDS011;28444;48.056;14.408;2023-04-25T05:16:27;7.93;;;3.13;;
38911;SDS011;28444;48.056;14.408;2023-04-25T05:19:14;3.97;;;2.40;;
38911;SDS011;28444;48.056;14.408;2023-04-25T05:22:01;4.00;;;2.03;;
38911;SDS011;28444;48.056;14.408;2023-04-25T05:24:49;5.40;;;2.53;;
38911;SDS011;28444;48.056;14.408;2023-04-25T05:27:36;4.70;;;2.65;;
38911;SDS011;28444;48.056;14.408;2023-04-25T05:30:22;3.95;;;2.70;;
38911;SDS011;28444;48.056;14.408;2023-04-25T05:33:09;5.97;;;2.83;;
38911;SDS011;28444;48.056;14.408;2023-04-25T05:35:56;7.60;;;2.38;;
38911;SDS011;28444;48.056;14.408;2023-04-25T05:38:43;8.60;;;2.28;;
38911;SDS011;28444;48.056;14.408;2023-04-25T05:41:30;5.15;;;2.17;;
38911;SDS011;28444;48.056;14.408;2023-04-25T05:44:17;3.28;;;2.60;;
38911;SDS011;28444;48.056;14.408;2023-04-25T05:47:04;3.15;;;2.50;;
38911;SDS011;28444;48.056;14.408;2023-04-25T05:49:51;5.47;;;2.88;;
38911;SDS011;28444;48.056;14.408;2023-04-25T05:52:38;4.05;;;2.67;;
38911;SDS011;28444;48.056;14.408;2023-04-25T05:55:25;4.75;;;2.85;;
38911;SDS011;28444;48.056;14.408;2023-04-25T05:58:12;3.83;;;2.72;;
38911;SDS011;28444;48.056;14.408;2023-04-25T06:00:59;7.50;;;2.60;;
38911;SDS011;28444;48.056;14.408;2023-04-25T06:03:46;7.45;;;2.70;;
38911;SDS011;28444;48.056;14.408;2023-04-25T06:06:34;5.97;;;2.15;;
38911;SDS011;28444;48.056;14.408;2023-04-25T06:09:21;7.85;;;3.03;;
38911;SDS011;28444;48.056;14.408;2023-04-25T06:12:07;5.38;;;2.70;;
38911;SDS011;28444;48.056;14.408;2023-04-25T06:14:54;4.00;;;2.88;;
38911;SDS011;28444;48.056;14.408;2023-04-25T06:17:41;8.90;;;3.22;;
38911;SDS011;28444;48.056;14.408;2023-04-25T06:20:28;7.47;;;3.20;;
38911;SDS011;28444;48.056;14.408;2023-04-25T06:23:15;5.40;;;2.55;;
38911;SDS011;28444;48.056;14.408;2023-04-25T06:26:02;4.20;;;2.75;;
38911;SDS011;28444;48.056;14.408;2023-04-25T06:28:50;4.43;;;2.70;;
38911;SDS011;28444;48.056;14.408;2023-04-25T06:31:37;4.78;;;2.63;;
38911;SDS011;28444;48.056;14.408;2023-04-25T06:34:24;5.13;;;2.60;;
38911;SDS011;28444;48.056;14.408;2023-04-25T06:37:11;8.05;;;2.15;;
38911;SDS011;28444;48.056;14.408;2023-04-25T06:39:58;7.05;;;2.78;;
38911;SDS011;28444;48.056;14.408;2023-04-25T06:42:45;2.20;;;2.00;;
38911;SDS011;28444;48.056;14.408;2023-04-25T06:45:32;5.82;;;2.63;;
38911;SDS011;28444;48.056;14.408;2023-04-25T06:48:19;4.88;;;3.30;;
38911;SDS011;28444;48.056;14.408;2023-04-25T06:51:06;4.03;;;2.50;;
38911;SDS011;28444;48.056;14.408;2023-04-25T06:53:53;6.13;;;2.70;;
38911;SDS011;28444;48.056;14.408;2023-04-25T06:56:40;2.58;;;2.35;;
38911;SDS011;28444;48.056;14.408;2023-04-25T06:59:27;6.05;;;3.15;;
38911;SDS011;28444;48.056;14.408;2023-04-25T07:02:14;4.20;;;2.55;;
38911;SDS011;28444;48.056;14.408;2023-04-25T07:05:02;4.43;;;2.67;;
38911;SDS011;28444;48.056;14.408;2023-04-25T07:07:50;3.55;;;3.03;;
38911;SDS011;28444;48.056;14.408;2023-04-25T07:10:37;4.07;;;2.80;;
38911;SDS011;28444;48.056;14.408;2023-04-25T07:13:24;7.38;;;3.28;;
38911;SDS011;28444;48.056;14.408;2023-04-25T07:16:11;4.72;;;2.85;;
38911;SDS011;28444;48.056;14.408;2023-04-25T07:18:58;4.53;;;3.70;;
38911;SDS011;28444;48.056;14.408;2023-04-25T07:21:46;4.35;;;2.88;;
38911;SDS011;28444;48.056;14.408;2023-04-25T07:24:33;3.45;;;2.72;;
38911;SDS011;28444;48.056;14.408;2023-04-25T07:27:19;6.30;;;2.60;;
38911;SDS011;28444;48.056;14.408;2023-04-25T07:30:07;3.95;;;2.75;;
38911;SDS011;28444;48.056;14.408;2023-04-25T07:32:54;5.32;;;2.83;;
38911;SDS011;28444;48.056;14.408;2023-04-25T07:35:42;2.97;;;2.67;;
38911;SDS011;28444;48.056;14.408;2023-04-25T07:38:29;4.57;;;2.97;;
38911;SDS011;28444;48.056;14.408;2023-04-25T07:41:15;7.18;;;2.72;;
38911;SDS011;28444;48.056;14.408;2023-04-25T07:44:02;5.28;;;3.42;;
38911;SDS011;28444;48.056;14.408;2023-04-25T07:46:49;6.43;;;2.70;;
38911;SDS011;28444;48.056;14.408;2023-04-25T07:49:36;6.30;;;3.05;;
38911;SDS011;28444;48.056;14.408;2023-04-25T07:52:23;7.45;;;3.40;;
38911;SDS011;28444;48.056;14.408;2023-04-25T07:55:10;4.97;;;2.83;;
38911;SDS011;28444;48.056;14.408;2023-04-25T07:57:57;8.40;;;3.10;;
38911;SDS011;28444;48.056;14.408;2023-04-25T08:00:44;5.90;;;2.85;;
38911;SDS011;28444;48.056;14.408;2023-04-25T08:03:31;6.18;;;2.92;;
38911;SDS011;28444;48.056;14.408;2023-04-25T08:06:19;5.85;;;2.85;;
38911;SDS011;28444;48.056;14.408;2023-04-25T08:09:06;4.38;;;2.70;;
38911;SDS011;28444;48.056;14.408;2023-04-25T08:11:55;4.93;;;2.58;;
38911;SDS011;28444;48.056;14.408;2023-04-25T08:14:42;5.50;;;3.15;;
38911;SDS011;28444;48.056;14.408;2023-04-25T08:17:29;6.40;;;2.83;;
38911;SDS011;28444;48.056;14.408;2023-04-25T08:20:16;4.97;;;2.70;;
38911;SDS011;28444;48.056;14.408;2023-04-25T08:23:03;8.85;;;3.08;;
38911;SDS011;28444;48.056;14.408;2023-04-25T08:25:50;6.45;;;2.95;;
38911;SDS011;28444;48.056;14.408;2023-04-25T08:28:37;3.88;;;2.67;;
38911;SDS011;28444;48.056;14.408;2023-04-25T08:31:24;4.28;;;2.67;;
38911;SDS011;28444;48.056;14.408;2023-04-25T08:34:11;3.05;;;2.75;;
38911;SDS011;28444;48.056;14.408;2023-04-25T08:36:58;5.55;;;2.80;;
38911;SDS011;28444;48.056;14.408;2023-04-25T08:39:45;4.28;;;2.85;;
38911;SDS011;28444;48.056;14.408;2023-04-25T08:42:34;8.32;;;3.85;;
38911;SDS011;28444;48.056;14.408;2023-04-25T08:45:25;5.35;;;3.00;;
38911;SDS011;28444;48.056;14.408;2023-04-25T08:48:15;5.57;;;3.40;;
38911;SDS011;28444;48.056;14.408;2023-04-25T08:51:03;3.67;;;2.60;;
38911;SDS011;28444;48.056;14.408;2023-04-25T08:54:04;7.95;;;3.65;;
38911;SDS011;28444;48.056;14.408;2023-04-25T08:57:18;6.90;;;3.53;;
38911;SDS011;28444;48.056;14.408;2023-04-25T09:00:07;6.78;;;3.40;;
38911;SDS011;28444;48.056;14.408;2023-04-25T09:02:55;5.20;;;3.38;;
38911;SDS011;28444;48.056;14.408;2023-04-25T09:05:43;5.15;;;3.58;;
38911;SDS011;28444;48.056;14.408;2023-04-25T09:08:31;4.40;;;3.20;;
38911;SDS011;28444;48.056;14.408;2023-04-25T09:11:18;6.85;;;2.88;;
38911;SDS011;28444;48.056;14.408;2023-04-25T09:14:18;7.00;;;2.75;;
38911;SDS011;28444;48.056;14.408;2023-04-25T09:17:07;4.40;;;2.83;;
38911;SDS011;28444;48.056;14.408;2023-04-25T09:19:54;4.80;;;2.90;;
38911;SDS011;28444;48.056;14.408;2023-04-25T09:22:41;5.47;;;2.92;;
38911;SDS011;28444;48.056;14.408;2023-04-25T09:25:33;6.63;;;3.13;;
38911;SDS011;28444;48.056;14.408;2023-04-25T09:31:22;6.68;;;3.00;;
38911;SDS011;28444;48.056;14.408;2023-04-25T09:34:11;10.30;;;3.70;;
38911;SDS011;28444;48.056;14.408;2023-04-25T09:37:02;8.02;;;3.50;;
38911;SDS011;28444;48.056;14.408;2023-04-25T09:39:49;6.15;;;2.85;;
38911;SDS011;28444;48.056;14.408;2023-04-25T09:42:40;4.38;;;2.38;;
38911;SDS011;28444;48.056;14.408;2023-04-25T09:45:29;12.95;;;2.78;;
38911;SDS011;28444;48.056;14.408;2023-04-25T09:48:20;4.38;;;2.65;;
38911;SDS011;28444;48.056;14.408;2023-04-25T09:51:12;8.77;;;2.72;;
38911;SDS011;28444;48.056;14.408;2023-04-25T09:54:03;5.55;;;2.05;;
38911;SDS011;28444;48.056;14.408;2023-04-25T09:56:51;5.07;;;2.55;;
38911;SDS011;28444;48.056;14.408;2023-04-25T09:59:41;6.15;;;2.30;;
38911;SDS011;28444;48.056;14.408;2023-04-25T10:02:30;2.40;;;1.90;;
38911;SDS011;28444;48.056;14.408;2023-04-25T10:05:19;2.70;;;2.40;;
38911;SDS011;28444;48.056;14.408;2023-04-25T10:08:07;3.63;;;2.45;;
38911;SDS011;28444;48.056;14.408;2023-04-25T10:10:55;2.28;;;1.35;;
38911;SDS011;28444;48.056;14.408;2023-04-25T10:13:42;1.35;;;1.00;;
38911;SDS011;28444;48.056;14.408;2023-04-25T10:16:29;3.85;;;0.98;;
38911;SDS011;28444;48.056;14.408;2023-04-25T10:19:17;3.15;;;1.00;;
38911;SDS011;28444;48.056;14.408;2023-04-25T10:22:06;1.65;;;1.00;;
38911;SDS011;28444;48.056;14.408;2023-04-25T10:24:55;5.03;;;1.23;;
38911;SDS011;28444;48.056;14.408;2023-04-25T10:27:43;1.42;;;1.20;;
38911;SDS011;28444;48.056;14.408;2023-04-25T10:30:30;2.53;;;1.10;;
38911;SDS011;28444;48.056;14.408;2023-04-25T10:33:17;1.23;;;1.10;;
38911;SDS011;28444;48.056;14.408;2023-04-25T10:36:11;2.22;;;1.35;;
38911;SDS011;28444;48.056;14.408;2023-04-25T10:39:02;2.40;;;1.23;;
38911;SDS011;28444;48.056;14.408;2023-04-25T10:41:56;2.47;;;1.60;;
38911;SDS011;28444;48.056;14.408;2023-04-25T10:45:00;1.65;;;1.10;;
38911;SDS011;28444;48.056;14.408;2023-04-25T10:47:49;1.20;;;1.10;;
38911;SDS011;28444;48.056;14.408;2023-04-25T10:50:39;5.07;;;1.17;;
38911;SDS011;28444;48.056;14.408;2023-04-25T10:53:26;1.60;;;0.98;;
38911;SDS011;28444;48.056;14.408;2023-04-25T10:56:19;1.48;;;1.23;;
38911;SDS011;28444;48.056;14.408;2023-04-25T10:59:11;4.78;;;1.00;;
38911;SDS011;28444;48.056;14.408;2023-04-25T11:02:02;1.35;;;0.93;;
38911;SDS011;28444;48.056;14.408;2023-04-25T11:05:00;1.90;;;0.73;;
38911;SDS011;28444;48.056;14.408;2023-04-25T11:07:53;1.17;;;0.70;;
38911;SDS011;28444;48.056;14.408;2023-04-25T11:10:52;2.13;;;1.20;;
38911;SDS011;28444;48.056;14.408;2023-04-25T11:13:40;0.85;;;0.70;;
38911;SDS011;28444;48.056;14.408;2023-04-25T11:16:27;0.85;;;0.85;;
38911;SDS011;28444;48.056;14.408;2023-04-25T11:19:14;1.30;;;0.80;;
38911;SDS011;28444;48.056;14.408;2023-04-25T11:22:01;2.13;;;1.10;;
38911;SDS011;28444;48.056;14.408;2023-04-25T11:24:49;1.73;;;1.10;;
38911;SDS011;28444;48.056;14.408;2023-04-25T11:27:58;1.30;;;1.20;;
38911;SDS011;28444;48.056;14.408;2023-04-25T11:30:47;2.55;;;1.73;;
38911;SDS011;28444;48.056;14.408;2023-04-25T11:33:36;5.50;;;1.75;;
38911;SDS011;28444;48.056;14.408;2023-04-25T11:36:23;1.70;;;1.27;;
38911;SDS011;28444;48.056;14.408;2023-04-25T11:39:12;2.03;;;1.08;;
38911;SDS011;28444;48.056;14.408;2023-04-25T11:42:01;3.38;;;1.73;;
38911;SDS011;28444;48.056;14.408;2023-04-25T11:44:53;4.40;;;1.40;;
38911;SDS011;28444;48.056;14.408;2023-04-25T11:47:40;2.92;;;2.10;;
38911;SDS011;28444;48.056;14.408;2023-04-25T11:50:28;4.40;;;1.90;;
38911;SDS011;28444;48.056;14.408;2023-04-25T11:53:15;3.30;;;1.60;;
38911;SDS011;28444;48.056;14.408;2023-04-25T11:56:09;1.75;;;1.60;;
38911;SDS011;28444;48.056;14.408;2023-04-25T11:58:57;3.97;;;1.67;;
38911;SDS011;28444;48.056;14.408;2023-04-25T12:01:49;2.03;;;1.58;;
38911;SDS011;28444;48.056;14.408;2023-04-25T12:04:36;6.13;;;1.65;;
38911;SDS011;28444;48.056;14.408;2023-04-25T12:07:28;2.70;;;1.33;;
38911;SDS011;28444;48.056;14.408;2023-04-25T12:10:17;1.98;;;1.50;;
38911;SDS011;28444;48.056;14.408;2023-04-25T12:13:17;3.65;;;1.38;;
38911;SDS011;28444;48.056;14.408;2023-04-25T12:18:55;1.98;;;1.00;;
38911;SDS011;28444;48.056;14.408;2023-04-25T12:21:43;3.63;;;1.65;;
38911;SDS011;28444;48.056;14.408;2023-04-25T12:24:44;2.80;;;1.30;;
38911;SDS011;28444;48.056;14.408;2023-04-25T12:27:31;2.15;;;1.42;;
38911;SDS011;28444;48.056;14.408;2023-04-25T12:30:18;2.30;;;1.70;;
38911;SDS011;28444;48.056;14.408;2023-04-25T12:33:05;2.60;;;1.65;;
38911;SDS011;28444;48.056;14.408;2023-04-25T12:35:53;3.40;;;1.83;;
38911;SDS011;28444;48.056;14.408;2023-04-25T12:38:41;1.35;;;1.23;;
38911;SDS011;28444;48.056;14.408;2023-04-25T12:41:28;1.77;;;1.48;;
38911;SDS011;28444;48.056;14.408;2023-04-25T12:44:16;1.63;;;1.42;;
38911;SDS011;28444;48.056;14.408;2023-04-25T12:47:03;1.85;;;1.50;;
38911;SDS011;28444;48.056;14.408;2023-04-25T12:49:50;2.25;;;1.55;;
38911;SDS011;28444;48.056;14.408;2023-04-25T12:52:38;2.47;;;1.60;;
38911;SDS011;28444;48.056;14.408;2023-04-25T12:55:25;3.67;;;2.00;;
38911;SDS011;28444;48.056;14.408;2023-04-25T12:58:15;2.50;;;2.10;;
38911;SDS011;28444;48.056;14.408;2023-04-25T13:01:04;6.78;;;2.60;;
38911;SDS011;28444;48.056;14.408;2023-04-25T13:03:51;2.17;;;1.75;;
38911;SDS011;28444;48.056;14.408;2023-04-25T13:06:39;4.22;;;1.83;;
38911;SDS011;28444;48.056;14.408;2023-04-25T13:09:26;2.78;;;2.13;;
38911;SDS011;28444;48.056;14.408;2023-04-25T13:12:13;3.35;;;1.90;;
38911;SDS011;28444;48.056;14.408;2023-04-25T13:15:00;6.47;;;1.65;;
38911;SDS011;28444;48.056;14.408;2023-04-25T13:17:47;2.55;;;2.13;;
38911;SDS011;28444;48.056;14.408;2023-04-25T13:20:34;1.52;;;1.23;;
38911;SDS011;28444;48.056;14.408;2023-04-25T13:23:21;4.07;;;1.98;;
38911;SDS011;28444;48.056;14.408;2023-04-25T13:26:08;2.85;;;1.70;;
38911;SDS011;28444;48.056;14.408;2023-04-25T13:28:55;3.17;;;1.55;;
38911;SDS011;28444;48.056;14.408;2023-04-25T13:31:43;2.53;;;1.42;;
38911;SDS011;28444;48.056;14.408;2023-04-25T13:34:30;1.98;;;1.10;;
38911;SDS011;28444;48.056;14.408;2023-04-25T13:37:17;1.88;;;0.70;;
38911;SDS011;28444;48.056;14.408;2023-04-25T13:40:06;1.38;;;0.93;;
38911;SDS011;28444;48.056;14.408;2023-04-25T13:42:56;4.18;;;1.42;;
38911;SDS011;28444;48.056;14.408;2023-04-25T13:45:43;1.63;;;1.10;;
38911;SDS011;28444;48.056;14.408;2023-04-25T13:48:30;5.35;;;1.20;;
38911;SDS011;28444;48.056;14.408;2023-04-25T13:51:17;2.20;;;1.30;;
38911;SDS011;28444;48.056;14.408;2023-04-25T13:54:04;2.25;;;1.38;;
38911;SDS011;28444;48.056;14.408;2023-04-25T13:56:51;2.63;;;1.20;;
38911;SDS011;28444;48.056;14.408;2023-04-25T13:59:39;2.17;;;1.73;;
38911;SDS011;28444;48.056;14.408;2023-04-25T14:02:27;2.00;;;1.80;;
38911;SDS011;28444;48.056;14.408;2023-04-25T14:05:14;3.15;;;1.70;;
38911;SDS011;28444;48.056;14.408;2023-04-25T14:08:01;2.65;;;2.13;;
38911;SDS011;28444;48.056;14.408;2023-04-25T14:10:48;2.60;;;2.00;;
38911;SDS011;28444;48.056;14.408;2023-04-25T14:13:35;4.75;;;2.47;;
38911;SDS011;28444;48.056;14.408;2023-04-25T14:16:22;8.43;;;2.50;;
38911;SDS011;28444;48.056;14.408;2023-04-25T14:19:09;3.53;;;2.35;;
38911;SDS011;28444;48.056;14.408;2023-04-25T14:21:57;5.03;;;2.45;;
38911;SDS011;28444;48.056;14.408;2023-04-25T14:24:44;4.28;;;2.70;;
38911;SDS011;28444;48.056;14.408;2023-04-25T14:27:31;2.20;;;1.92;;
38911;SDS011;28444;48.056;14.408;2023-04-25T14:30:18;5.32;;;2.42;;
38911;SDS011;28444;48.056;14.408;2023-04-25T14:33:06;3.50;;;2.85;;
38911;SDS011;28444;48.056;14.408;2023-04-25T14:35:53;3.25;;;2.05;;
38911;SDS011;28444;48.056;14.408;2023-04-25T14:38:41;2.80;;;2.17;;
38911;SDS011;28444;48.056;14.408;2023-04-25T14:41:28;2.67;;;2.40;;
38911;SDS011;28444;48.056;14.408;2023-04-25T14:44:15;3.95;;;2.42;;
38911;SDS011;28444;48.056;14.408;2023-04-25T14:47:01;4.18;;;2.53;;
38911;SDS011;28444;48.056;14.408;2023-04-25T14:49:49;4.47;;;2.38;;
38911;SDS011;28444;48.056;14.408;2023-04-25T14:52:40;2.58;;;1.98;;
38911;SDS011;28444;48.056;14.408;2023-04-25T14:55:27;3.97;;;2.05;;
38911;SDS011;28444;48.056;14.408;2023-04-25T14:58:14;2.40;;;2.00;;
38911;SDS011;28444;48.056;14.408;2023-04-25T15:01:02;6.07;;;1.85;;
38911;SDS011;28444;48.056;14.408;2023-04-25T15:03:49;5.40;;;2.25;;
38911;SDS011;28444;48.056;14.408;2023-04-25T15:06:38;4.35;;;2.40;;
38911;SDS011;28444;48.056;14.408;2023-04-25T15:09:25;6.45;;;1.63;;
38911;SDS011;28444;48.056;14.408;2023-04-25T15:12:12;3.42;;;2.40;;
38911;SDS011;28444;48.056;14.408;2023-04-25T15:14:59;5.32;;;2.75;;
38911;SDS011;28444;48.056;14.408;2023-04-25T15:17:46;3.78;;;2.22;;
38911;SDS011;28444;48.056;14.408;2023-04-25T15:20:33;7.22;;;2.40;;
38911;SDS011;28444;48.056;14.408;2023-04-25T15:23:21;2.45;;;1.88;;
38911;SDS011;28444;48.056;14.408;2023-04-25T15:26:09;3.95;;;2.70;;
38911;SDS011;28444;48.056;14.408;2023-04-25T15:28:56;5.22;;;2.55;;
38911;SDS011;28444;48.056;14.408;2023-04-25T15:31:43;3.53;;;2.45;;
38911;SDS011;28444;48.056;14.408;2023-04-25T15:34:30;5.25;;;2.35;;
38911;SDS011;28444;48.056;14.408;2023-04-25T15:37:19;5.15;;;2.85;;
38911;SDS011;28444;48.056;14.408;2023-04-25T15:40:07;4.90;;;2.28;;
38911;SDS011;28444;48.056;14.408;2023-04-25T15:42:55;4.28;;;2.00;;
38911;SDS011;28444;48.056;14.408;2023-04-25T15:45:42;2.63;;;2.03;;
38911;SDS011;28444;48.056;14.408;2023-04-25T15:48:30;5.40;;;2.80;;
38911;SDS011;28444;48.056;14.408;2023-04-25T15:51:18;5.80;;;2.58;;
38911;SDS011;28444;48.056;14.408;2023-04-25T15:54:06;2.50;;;2.30;;
38911;SDS011;28444;48.056;14.408;2023-04-25T15:56:53;3.22;;;2.42;;
38911;SDS011;28444;48.056;14.408;2023-04-25T15:59:40;2.60;;;2.40;;
38911;SDS011;28444;48.056;14.408;2023-04-25T16:02:27;5.70;;;2.83;;
38911;SDS011;28444;48.056;14.408;2023-04-25T16:05:16;6.97;;;2.95;;
38911;SDS011;28444;48.056;14.408;2023-04-25T16:08:04;6.55;;;2.65;;
38911;SDS011;28444;48.056;14.408;2023-04-25T16:10:51;3.92;;;2.10;;
38911;SDS011;28444;48.056;14.408;2023-04-25T16:13:38;2.97;;;2.00;;
38911;SDS011;28444;48.056;14.408;2023-04-25T16:16:25;4.18;;;2.30;;
38911;SDS011;28444;48.056;14.408;2023-04-25T16:19:12;2.67;;;2.45;;
38911;SDS011;28444;48.056;14.408;2023-04-25T16:21:59;5.07;;;2.70;;
38911;SDS011;28444;48.056;14.408;2023-04-25T16:24:47;3.05;;;2.65;;
38911;SDS011;28444;48.056;14.408;2023-04-25T16:27:34;5.55;;;2.10;;
38911;SDS011;28444;48.056;14.408;2023-04-25T16:30:24;4.22;;;2.28;;
38911;SDS011;28444;48.056;14.408;2023-04-25T16:33:11;4.70;;;2.00;;
38911;SDS011;28444;48.056;14.408;2023-04-25T16:35:58;3.55;;;2.50;;
38911;SDS011;28444;48.056;14.408;2023-04-25T16:38:45;3.75;;;2.50;;
38911;SDS011;28444;48.056;14.408;2023-04-25T16:41:32;3.35;;;1.85;;